Time;durP1;ratioP1;P1;durP2;ratioP2;P2;SDS_P1;SDS_P2;PMS_P1;PMS_P2;Temp;Humidity;BMP_temperature;BMP_pressure;BME280_temperature;BME280_humidity;BME280_pressure;Samples;Min_cycle;Max_cycle;Signal;HPM_P1;HPM_P2
2023/04/20 00:01:00;;;;;;;12.60;4.40;;;;;;;;;;4913217;28;20063;-70
2023/04/20 00:03:28;;;;;;;14.68;4.65;;;;;;;;;;4908903;28;20462;-67
2023/04/20 00:05:54;;;;;;;11.40;4.53;;;;;;;;;;4914478;28;20060;-68
2023/04/20 00:08:20;;;;;;;12.27;3.90;;;;;;;;;;4909330;29;20052;-66
2023/04/20 00:10:48;;;;;;;9.15;4.72;;;;;;;;;;4912283;28;20709;-68
2023/04/20 00:13:15;;;;;;;12.90;4.70;;;;;;;;;;4926515;28;20662;-69
2023/04/20 00:15:41;;;;;;;13.85;5.13;;;;;;;;;;4931338;29;20043;-67
2023/04/20 00:18:10;;;;;;;8.30;4.50;;;;;;;;;;4929006;28;20059;-68
2023/04/20 00:20:36;;;;;;;11.65;4.38;;;;;;;;;;4929371;29;20048;-70
2023/04/20 00:23:02;;;;;;;9.50;3.90;;;;;;;;;;4924349;28;20067;-68
2023/04/20 00:25:30;;;;;;;7.18;3.72;;;;;;;;;;4926876;28;20529;-68
2023/04/20 00:27:57;;;;;;;8.30;3.30;;;;;;;;;;4926072;28;20058;-67
2023/04/20 00:30:23;;;;;;;10.20;3.47;;;;;;;;;;4927403;28;20044;-68
2023/04/20 00:32:49;;;;;;;6.20;3.38;;;;;;;;;;4926049;29;20044;-66
2023/04/20 00:35:15;;;;;;;16.13;3.70;;;;;;;;;;4932116;29;20043;-68
2023/04/20 00:37:42;;;;;;;9.18;3.47;;;;;;;;;;4937515;28;20142;-68
2023/04/20 00:40:12;;;;;;;6.60;3.20;;;;;;;;;;4932402;29;20043;-68
2023/04/20 00:42:39;;;;;;;8.82;4.00;;;;;;;;;;4928332;29;20405;-67
2023/04/20 00:45:06;;;;;;;9.40;3.72;;;;;;;;;;4932851;28;20456;-67
2023/04/20 00:47:32;;;;;;;9.82;3.78;;;;;;;;;;4935312;28;20060;-69
2023/04/20 00:49:59;;;;;;;8.63;3.90;;;;;;;;;;4932017;28;20047;-68
2023/04/20 00:52:28;;;;;;;9.95;3.80;;;;;;;;;;4933750;29;20044;-66
2023/04/20 00:54:54;;;;;;;10.35;4.20;;;;;;;;;;4932518;29;20191;-65
2023/04/20 00:57:25;;;;;;;10.70;3.95;;;;;;;;;;4923401;28;20047;-67
2023/04/20 00:59:51;;;;;;;8.75;3.92;;;;;;;;;;4928456;28;20135;-67
2023/04/20 01:02:22;;;;;;;8.18;3.90;;;;;;;;;;4933832;28;20066;-67
2023/04/20 01:04:48;;;;;;;6.72;3.47;;;;;;;;;;4935281;28;20575;-66
2023/04/20 01:07:19;;;;;;;7.25;3.47;;;;;;;;;;4931798;29;20112;-66
2023/04/20 01:09:47;;;;;;;7.90;3.60;;;;;;;;;;4929537;29;20139;-64
2023/04/20 01:12:16;;;;;;;8.43;2.90;;;;;;;;;;4947599;28;20085;-64
2023/04/20 01:14:52;;;;;;;7.22;3.65;;;;;;;;;;4918489;28;21899;-64
2023/04/20 01:17:20;;;;;;;6.95;2.90;;;;;;;;;;4911277;28;20048;-66
2023/04/20 01:19:46;;;;;;;7.47;3.00;;;;;;;;;;4913994;28;20078;-67
2023/04/20 01:22:18;;;;;;;6.35;2.72;;;;;;;;;;4912067;28;20063;-68
2023/04/20 01:24:46;;;;;;;5.13;2.50;;;;;;;;;;4906605;29;20654;-64
2023/04/20 01:27:15;;;;;;;11.63;2.92;;;;;;;;;;4911755;28;20055;-67
2023/04/20 01:29:42;;;;;;;5.88;2.47;;;;;;;;;;4911576;28;20051;-67
2023/04/20 01:32:09;;;;;;;5.13;2.67;;;;;;;;;;4908204;28;20732;-66
2023/04/20 01:34:35;;;;;;;4.40;2.72;;;;;;;;;;4911241;28;20047;-67
2023/04/20 01:37:07;;;;;;;8.80;2.63;;;;;;;;;;4911614;28;20039;-66
2023/04/20 01:39:42;;;;;;;5.10;2.38;;;;;;;;;;4911719;28;20090;-66
2023/04/20 01:42:08;;;;;;;6.38;2.67;;;;;;;;;;4913331;28;20060;-67
2023/04/20 01:44:35;;;;;;;7.55;2.78;;;;;;;;;;4914184;28;20051;-65
2023/04/20 01:47:01;;;;;;;7.38;2.63;;;;;;;;;;4913881;28;20055;-66
2023/04/20 01:49:27;;;;;;;5.43;3.33;;;;;;;;;;4910850;28;20369;-66
2023/04/20 01:51:54;;;;;;;7.70;3.47;;;;;;;;;;4907943;28;20059;-66
2023/04/20 01:54:21;;;;;;;7.97;3.10;;;;;;;;;;4911967;28;20060;-65
2023/04/20 01:56:48;;;;;;;5.30;2.75;;;;;;;;;;4903389;29;20059;-67
2023/04/20 01:59:15;;;;;;;8.40;3.25;;;;;;;;;;4908767;28;20051;-64
2023/04/20 02:01:44;;;;;;;7.68;3.05;;;;;;;;;;4907512;29;20107;-65
2023/04/20 02:04:11;;;;;;;7.80;3.10;;;;;;;;;;4905560;28;22136;-64
2023/04/20 02:06:38;;;;;;;10.13;3.45;;;;;;;;;;4908404;28;20055;-65
2023/04/20 02:09:08;;;;;;;7.95;3.85;;;;;;;;;;4908397;28;20046;-66
2023/04/20 02:11:35;;;;;;;7.95;3.45;;;;;;;;;;4915891;28;20419;-66
2023/04/20 02:14:00;;;;;;;7.30;3.05;;;;;;;;;;4906603;28;20604;-64
2023/04/20 02:16:30;;;;;;;6.47;3.30;;;;;;;;;;4906827;28;20118;-65
2023/04/20 02:18:56;;;;;;;6.93;3.38;;;;;;;;;;4908104;28;20048;-64
2023/04/20 02:21:23;;;;;;;5.68;3.35;;;;;;;;;;4908822;28;20056;-66
2023/04/20 02:23:49;;;;;;;7.47;3.30;;;;;;;;;;4908649;28;20297;-65
2023/04/20 02:26:15;;;;;;;6.32;3.10;;;;;;;;;;4907072;28;20960;-64
2023/04/20 02:28:42;;;;;;;5.57;3.30;;;;;;;;;;4909515;28;20123;-65
2023/04/20 02:31:09;;;;;;;7.47;3.28;;;;;;;;;;4905199;28;20126;-65
2023/04/20 02:33:35;;;;;;;8.40;3.47;;;;;;;;;;4905754;28;20048;-66
2023/04/20 02:36:02;;;;;;;6.20;3.53;;;;;;;;;;4908380;28;20100;-66
2023/04/20 02:38:29;;;;;;;5.93;3.03;;;;;;;;;;4912007;28;20516;-67
2023/04/20 02:40:57;;;;;;;8.40;3.40;;;;;;;;;;4908076;28;20123;-66
2023/04/20 02:43:24;;;;;;;8.65;3.50;;;;;;;;;;4909299;28;20052;-65
2023/04/20 02:45:51;;;;;;;5.43;3.30;;;;;;;;;;4905758;28;20267;-66
2023/04/20 02:48:20;;;;;;;11.80;3.40;;;;;;;;;;4909140;28;20823;-65
2023/04/20 02:50:46;;;;;;;7.70;3.80;;;;;;;;;;4907769;28;20543;-66
2023/04/20 02:53:12;;;;;;;8.43;3.50;;;;;;;;;;4911626;28;20059;-65
2023/04/20 02:55:38;;;;;;;8.98;3.38;;;;;;;;;;4924352;28;20056;-67
2023/04/20 02:58:04;;;;;;;6.68;3.45;;;;;;;;;;4911086;28;20688;-69
2023/04/20 03:00:31;;;;;;;6.72;3.40;;;;;;;;;;4909951;28;20048;-65
2023/04/20 03:02:56;;;;;;;10.48;3.45;;;;;;;;;;4909887;28;20405;-66
2023/04/20 03:05:23;;;;;;;5.72;2.97;;;;;;;;;;4908085;28;20048;-66
2023/04/20 03:07:50;;;;;;;5.40;3.10;;;;;;;;;;4911713;28;20427;-67
2023/04/20 03:10:16;;;;;;;9.20;3.58;;;;;;;;;;4917604;28;20060;-66
2023/04/20 03:12:42;;;;;;;8.88;3.08;;;;;;;;;;4922618;28;20527;-67
2023/04/20 03:15:11;;;;;;;6.20;3.40;;;;;;;;;;4928879;28;20129;-65
2023/04/20 03:17:38;;;;;;;6.45;3.40;;;;;;;;;;4915175;28;20051;-65
2023/04/20 03:20:06;;;;;;;7.57;3.45;;;;;;;;;;4914595;28;20040;-66
2023/04/20 03:22:33;;;;;;;6.50;3.03;;;;;;;;;;4916346;28;20059;-68
2023/04/20 03:24:59;;;;;;;9.27;3.00;;;;;;;;;;4918993;28;20484;-68
2023/04/20 03:27:25;;;;;;;7.78;3.22;;;;;;;;;;4910850;28;20086;-66
2023/04/20 03:29:51;;;;;;;12.68;3.60;;;;;;;;;;4913611;28;20534;-66
2023/04/20 03:32:17;;;;;;;10.27;3.03;;;;;;;;;;4915254;28;20062;-68
2023/04/20 03:34:45;;;;;;;8.00;3.70;;;;;;;;;;4915042;28;20507;-68
2023/04/20 03:37:11;;;;;;;9.38;3.70;;;;;;;;;;4917475;28;20464;-66
2023/04/20 03:39:38;;;;;;;5.78;3.03;;;;;;;;;;4914920;28;20645;-65
2023/04/20 03:42:03;;;;;;;7.40;3.20;;;;;;;;;;4918674;28;20068;-65
2023/04/20 03:44:30;;;;;;;7.65;3.30;;;;;;;;;;4918579;28;20059;-65
2023/04/20 03:46:56;;;;;;;8.02;3.05;;;;;;;;;;4918798;28;20074;-66
2023/04/20 03:49:24;;;;;;;5.93;3.30;;;;;;;;;;4922190;28;20047;-65
2023/04/20 03:51:50;;;;;;;9.10;3.38;;;;;;;;;;4912588;28;20051;-66
2023/04/20 03:54:18;;;;;;;7.55;3.35;;;;;;;;;;4914769;28;20060;-67
2023/04/20 03:56:44;;;;;;;5.30;3.20;;;;;;;;;;4923598;28;20060;-66
2023/04/20 03:59:11;;;;;;;5.50;2.50;;;;;;;;;;4915286;28;20054;-65
2023/04/20 04:01:41;;;;;;;5.05;2.67;;;;;;;;;;4911589;28;20052;-66
2023/04/20 04:04:07;;;;;;;4.47;2.63;;;;;;;;;;4911604;28;20504;-69
2023/04/20 04:06:32;;;;;;;5.82;2.70;;;;;;;;;;4915529;28;20051;-66
2023/04/20 04:09:00;;;;;;;6.20;2.60;;;;;;;;;;4916271;28;20059;-66
2023/04/20 04:11:28;;;;;;;3.67;2.33;;;;;;;;;;4919379;28;20084;-66
2023/04/20 04:13:56;;;;;;;5.07;2.38;;;;;;;;;;4918999;28;20086;-67
2023/04/20 04:16:24;;;;;;;4.72;2.17;;;;;;;;;;4915100;28;20070;-66
2023/04/20 04:18:51;;;;;;;7.80;2.47;;;;;;;;;;4923728;28;20101;-65
2023/04/20 04:21:17;;;;;;;4.55;2.63;;;;;;;;;;4924874;28;20135;-65
2023/04/20 04:23:43;;;;;;;7.30;2.40;;;;;;;;;;4913894;28;20666;-65
2023/04/20 04:26:11;;;;;;;4.97;2.47;;;;;;;;;;4910039;28;20043;-65
2023/04/20 04:28:39;;;;;;;5.93;2.40;;;;;;;;;;4911110;28;20479;-66
2023/04/20 04:31:06;;;;;;;8.93;2.30;;;;;;;;;;4907588;28;20052;-66
2023/04/20 04:33:33;;;;;;;8.93;2.90;;;;;;;;;;4914045;28;20098;-65
2023/04/20 04:36:01;;;;;;;5.18;2.42;;;;;;;;;;4910472;28;20142;-66
2023/04/20 04:38:28;;;;;;;8.32;2.10;;;;;;;;;;4912457;28;20061;-65
2023/04/20 04:40:55;;;;;;;5.22;2.50;;;;;;;;;;4906775;28;20055;-65
2023/04/20 04:43:21;;;;;;;8.85;2.38;;;;;;;;;;4911545;28;20764;-66
2023/04/20 04:45:48;;;;;;;5.60;2.60;;;;;;;;;;4910217;28;20085;-67
2023/04/20 04:48:14;;;;;;;5.38;2.45;;;;;;;;;;4910157;28;20070;-65
2023/04/20 04:50:40;;;;;;;10.55;2.95;;;;;;;;;;4914226;28;20846;-68
2023/04/20 04:53:07;;;;;;;6.85;2.20;;;;;;;;;;4911338;28;20106;-65
2023/04/20 04:55:33;;;;;;;7.05;2.67;;;;;;;;;;4906984;29;20515;-65
2023/04/20 04:58:00;;;;;;;5.95;2.47;;;;;;;;;;4908250;28;20401;-66
2023/04/20 05:00:26;;;;;;;4.05;2.38;;;;;;;;;;4914169;28;20055;-66
2023/04/20 05:02:52;;;;;;;6.57;2.30;;;;;;;;;;4913561;28;20413;-65
2023/04/20 05:05:19;;;;;;;4.47;2.25;;;;;;;;;;4907592;28;20051;-67
2023/04/20 05:07:46;;;;;;;4.05;2.22;;;;;;;;;;4910599;28;20060;-65
2023/04/20 05:10:12;;;;;;;4.22;2.40;;;;;;;;;;4910861;29;20055;-67
2023/04/20 05:12:39;;;;;;;3.55;2.15;;;;;;;;;;4916005;29;20052;-64
2023/04/20 05:15:05;;;;;;;11.93;2.67;;;;;;;;;;4910020;28;20079;-66
2023/04/20 05:17:33;;;;;;;3.85;2.00;;;;;;;;;;4910863;28;20052;-67
2023/04/20 05:20:00;;;;;;;4.90;2.30;;;;;;;;;;4909586;28;20260;-67
2023/04/20 05:22:26;;;;;;;7.65;2.22;;;;;;;;;;4911349;29;20058;-66
2023/04/20 05:24:52;;;;;;;3.83;1.85;;;;;;;;;;4911492;28;20668;-66
2023/04/20 05:27:19;;;;;;;7.50;2.10;;;;;;;;;;4905651;28;20192;-65
2023/04/20 05:30:25;;;;;;;10.02;2.20;;;;;;;;;;4909383;28;20067;-69
2023/04/20 05:34:07;;;;;;;5.90;2.00;;;;;;;;;;4909991;28;20079;-69
2023/04/20 05:37:47;;;;;;;5.07;2.00;;;;;;;;;;4907922;28;20048;-67
2023/04/20 05:41:28;;;;;;;8.05;2.50;;;;;;;;;;4909787;29;20079;-69
2023/04/20 05:45:08;;;;;;;8.45;2.30;;;;;;;;;;4907790;28;20431;-69
2023/04/20 05:48:48;;;;;;;5.88;2.08;;;;;;;;;;4907498;28;20585;-66
2023/04/20 05:52:28;;;;;;;10.23;2.97;;;;;;;;;;4910693;28;20535;-66
2023/04/20 05:56:12;;;;;;;10.77;2.38;;;;;;;;;;4911782;28;20059;-67
2023/04/20 05:59:54;;;;;;;6.40;2.00;;;;;;;;;;4912401;28;20149;-66
2023/04/20 06:03:21;;;;;;;12.57;2.33;;;;;;;;;;4910029;28;20062;-68
2023/04/20 06:06:48;;;;;;;10.48;2.10;;;;;;;;;;4908731;28;20151;-66
2023/04/20 06:10:32;;;;;;;10.35;2.38;;;;;;;;;;4908957;28;20504;-69
2023/04/20 06:14:13;;;;;;;13.95;2.50;;;;;;;;;;4907996;28;20086;-68
2023/04/20 06:17:52;;;;;;;6.38;2.80;;;;;;;;;;4908686;28;20425;-66
2023/04/20 06:21:35;;;;;;;9.57;2.40;;;;;;;;;;4911282;28;20058;-70
2023/04/20 06:25:16;;;;;;;11.00;2.70;;;;;;;;;;4909498;29;20415;-67
2023/04/20 06:28:57;;;;;;;16.02;3.15;;;;;;;;;;4905721;28;20059;-68
2023/04/20 06:32:38;;;;;;;20.35;3.15;;;;;;;;;;4909263;28;20046;-70
2023/04/20 06:36:18;;;;;;;13.98;3.63;;;;;;;;;;4908640;28;20059;-70
2023/04/20 06:39:58;;;;;;;14.45;4.72;;;;;;;;;;4904371;28;20070;-62
2023/04/20 06:43:40;;;;;;;16.13;4.55;;;;;;;;;;4903940;28;20119;-64
2023/04/20 06:47:19;;;;;;;15.25;4.30;;;;;;;;;;4908338;28;20063;-67
2023/04/20 06:51:00;;;;;;;26.05;4.88;;;;;;;;;;4908034;29;20404;-66
2023/04/20 06:54:40;;;;;;;22.27;4.47;;;;;;;;;;4906449;28;20044;-65
2023/04/20 06:58:20;;;;;;;17.50;4.78;;;;;;;;;;4909489;28;20063;-65
2023/04/20 07:02:00;;;;;;;12.20;4.40;;;;;;;;;;4904812;28;20209;-67
2023/04/20 07:05:41;;;;;;;17.42;4.65;;;;;;;;;;4908648;28;20388;-65
2023/04/20 07:09:21;;;;;;;17.60;5.43;;;;;;;;;;4902401;28;20047;-67
2023/04/20 07:13:01;;;;;;;16.30;5.25;;;;;;;;;;4911833;28;20114;-68
2023/04/20 07:16:42;;;;;;;12.57;5.85;;;;;;;;;;4907071;28;20094;-70
2023/04/20 07:20:22;;;;;;;13.55;5.53;;;;;;;;;;4906491;28;20052;-65
2023/04/20 07:24:02;;;;;;;15.85;5.68;;;;;;;;;;4906281;29;20091;-66
2023/04/20 07:27:43;;;;;;;12.65;5.18;;;;;;;;;;4905947;28;20052;-68
2023/04/20 07:31:23;;;;;;;22.00;6.53;;;;;;;;;;4909895;28;20111;-67
2023/04/20 07:35:05;;;;;;;20.60;5.63;;;;;;;;;;4908378;28;21229;-68
2023/04/20 07:38:45;;;;;;;18.23;4.30;;;;;;;;;;4907054;28;20440;-66
2023/04/20 07:42:25;;;;;;;23.60;6.43;;;;;;;;;;4911085;28;20051;-66
2023/04/20 07:46:06;;;;;;;21.58;6.63;;;;;;;;;;4909579;28;20575;-65
2023/04/20 07:49:46;;;;;;;22.75;6.85;;;;;;;;;;4905132;28;20047;-65
2023/04/20 07:53:26;;;;;;;36.95;6.00;;;;;;;;;;4908382;28;20047;-65
2023/04/20 07:57:08;;;;;;;29.58;5.65;;;;;;;;;;4913480;28;20423;-68
2023/04/20 08:00:47;;;;;;;19.48;5.35;;;;;;;;;;4910085;28;20138;-68
2023/04/20 08:04:29;;;;;;;17.30;5.38;;;;;;;;;;4909609;28;22629;-68
2023/04/20 08:08:09;;;;;;;15.80;4.50;;;;;;;;;;4908831;28;20408;-70
2023/04/20 08:11:50;;;;;;;23.60;4.28;;;;;;;;;;4912149;29;20078;-70
2023/04/20 08:15:30;;;;;;;18.90;4.63;;;;;;;;;;4912724;29;20051;-71
2023/04/20 08:19:10;;;;;;;18.60;5.18;;;;;;;;;;4909523;28;20102;-73
2023/04/20 08:22:52;;;;;;;22.60;4.35;;;;;;;;;;4915214;28;20055;-70
2023/04/20 08:26:31;;;;;;;18.23;4.32;;;;;;;;;;4922398;28;20059;-77
2023/04/20 08:30:11;;;;;;;28.13;4.70;;;;;;;;;;4916993;28;20086;-74
2023/04/20 08:33:52;;;;;;;31.65;4.18;;;;;;;;;;4917384;28;20047;-71
2023/04/20 08:37:32;;;;;;;15.40;3.97;;;;;;;;;;4909935;28;20051;-71
2023/04/20 08:41:13;;;;;;;31.52;4.72;;;;;;;;;;4910833;28;20063;-69
2023/04/20 08:44:53;;;;;;;18.70;4.03;;;;;;;;;;4913207;29;20066;-73
2023/04/20 08:48:33;;;;;;;22.75;4.88;;;;;;;;;;4910338;28;20773;-71
2023/04/20 08:52:13;;;;;;;18.75;4.75;;;;;;;;;;4914737;28;20131;-71
2023/04/20 08:55:56;;;;;;;14.57;5.00;;;;;;;;;;4913736;29;20060;-71
2023/04/20 08:59:34;;;;;;;14.75;5.13;;;;;;;;;;4912343;28;20091;-70
2023/04/20 09:03:14;;;;;;;13.35;4.47;;;;;;;;;;4911773;28;20044;-71
2023/04/20 09:06:55;;;;;;;11.80;5.22;;;;;;;;;;4911187;28;20048;-73
2023/04/20 09:10:35;;;;;;;17.90;5.25;;;;;;;;;;4911404;28;20091;-73
2023/04/20 09:14:17;;;;;;;20.17;4.70;;;;;;;;;;4916364;28;20059;-71
2023/04/20 09:17:57;;;;;;;9.90;4.07;;;;;;;;;;4911309;28;20170;-73
2023/04/20 09:21:38;;;;;;;12.90;3.55;;;;;;;;;;4911700;28;20048;-71
2023/04/20 09:25:18;;;;;;;13.43;3.03;;;;;;;;;;4911529;28;20055;-72
2023/04/20 09:28:58;;;;;;;13.52;3.30;;;;;;;;;;4910178;28;20131;-71
2023/04/20 09:32:41;;;;;;;15.68;2.85;;;;;;;;;;4911660;28;20348;-69
2023/04/20 09:36:21;;;;;;;5.85;2.97;;;;;;;;;;4910443;28;20676;-69
2023/04/20 09:40:02;;;;;;;8.88;3.05;;;;;;;;;;4912893;29;20043;-71
2023/04/20 09:43:27;;;;;;;7.57;2.55;;;;;;;;;;4910619;28;20496;-69
2023/04/20 09:46:33;;;;;;;10.20;2.45;;;;;;;;;;4907946;29;20553;-68
2023/04/20 09:50:14;;;;;;;7.60;2.38;;;;;;;;;;4910452;28;20059;-68
2023/04/20 09:53:58;;;;;;;10.07;2.80;;;;;;;;;;4909038;28;20055;-69
2023/04/20 09:57:39;;;;;;;8.15;2.67;;;;;;;;;;4908578;28;20749;-69
2023/04/20 10:01:19;;;;;;;12.85;2.33;;;;;;;;;;4909669;28;20047;-67
2023/04/20 10:04:51;;;;;;;8.60;2.83;;;;;;;;;;4909420;29;20130;-71
2023/04/20 10:08:32;;;;;;;13.90;2.70;;;;;;;;;;4910228;28;20059;-68
2023/04/20 10:12:13;;;;;;;7.75;3.17;;;;;;;;;;4917233;29;20316;-69
2023/04/20 10:15:56;;;;;;;14.00;2.95;;;;;;;;;;4921681;28;20036;-70
2023/04/20 10:19:39;;;;;;;11.32;3.13;;;;;;;;;;4919663;28;20114;-66
2023/04/20 10:23:25;;;;;;;7.50;2.00;;;;;;;;;;4909465;28;20055;-68
2023/04/20 10:27:15;;;;;;;10.15;2.13;;;;;;;;;;4909746;28;20275;-65
2023/04/20 10:30:55;;;;;;;12.68;2.22;;;;;;;;;;4910602;28;22242;-66
2023/04/20 10:34:36;;;;;;;21.08;2.80;;;;;;;;;;4910352;28;20065;-67
2023/04/20 10:38:16;;;;;;;18.10;3.00;;;;;;;;;;4910631;28;20488;-64
2023/04/20 10:42:02;;;;;;;9.55;2.33;;;;;;;;;;4909639;28;20047;-65
2023/04/20 10:45:52;;;;;;;11.43;2.05;;;;;;;;;;4910863;29;20052;-67
2023/04/20 10:49:39;;;;;;;15.52;2.03;;;;;;;;;;4909373;28;20140;-66
2023/04/20 10:53:19;;;;;;;5.13;1.90;;;;;;;;;;4910409;28;20439;-66
2023/04/20 10:57:01;;;;;;;6.55;1.83;;;;;;;;;;4909904;28;20039;-66
2023/04/20 11:00:44;;;;;;;5.03;1.67;;;;;;;;;;4909303;28;20119;-67
2023/04/20 11:04:24;;;;;;;7.32;2.20;;;;;;;;;;4908750;28;20056;-70
2023/04/20 11:08:10;;;;;;;7.85;1.80;;;;;;;;;;4909955;28;20054;-73
2023/04/20 11:11:57;;;;;;;7.00;1.77;;;;;;;;;;4927568;28;20130;-66
2023/04/20 11:15:38;;;;;;;4.78;2.08;;;;;;;;;;4918706;29;20051;-71
2023/04/20 11:19:31;;;;;;;14.10;2.60;;;;;;;;;;4915423;28;20058;-70
2023/04/20 11:23:12;;;;;;;10.13;2.22;;;;;;;;;;4907120;28;20051;-67
2023/04/20 11:26:53;;;;;;;8.52;2.47;;;;;;;;;;4908420;28;20051;-69
2023/04/20 11:30:37;;;;;;;9.95;2.75;;;;;;;;;;4910592;28;20560;-68
2023/04/20 11:34:18;;;;;;;12.70;4.05;;;;;;;;;;4911848;28;20745;-73
2023/04/20 11:38:07;;;;;;;8.63;2.70;;;;;;;;;;4911659;28;20055;-70
2023/04/20 11:41:47;;;;;;;73.07;23.42;;;;;;;;;;4913825;28;20411;-68
2023/04/20 11:45:28;;;;;;;8.80;2.55;;;;;;;;;;4912270;28;20042;-68
2023/04/20 11:49:11;;;;;;;24.70;9.80;;;;;;;;;;4912603;28;20538;-69
2023/04/20 11:52:52;;;;;;;14.05;4.78;;;;;;;;;;4912995;28;20071;-69
2023/04/20 11:56:34;;;;;;;16.10;5.03;;;;;;;;;;4911534;28;20331;-69
2023/04/20 12:00:14;;;;;;;14.38;4.60;;;;;;;;;;4910955;28;20051;-67
2023/04/20 12:03:54;;;;;;;15.55;6.00;;;;;;;;;;4913581;28;20055;-70
2023/04/20 12:07:35;;;;;;;7.43;2.15;;;;;;;;;;4912910;28;20055;-69
2023/04/20 12:11:18;;;;;;;7.75;2.67;;;;;;;;;;4921022;28;20047;-69
2023/04/20 12:14:58;;;;;;;7.10;2.75;;;;;;;;;;4913531;28;20264;-71
2023/04/20 12:18:39;;;;;;;20.23;7.93;;;;;;;;;;4917837;28;20326;-68
2023/04/20 12:22:19;;;;;;;11.30;3.92;;;;;;;;;;4913159;28;20855;-70
2023/04/20 12:26:15;;;;;;;5.30;1.90;;;;;;;;;;4911927;28;20051;-68
2023/04/20 12:29:56;;;;;;;12.77;3.88;;;;;;;;;;4908109;28;20064;-68
2023/04/20 12:33:37;;;;;;;6.18;2.28;;;;;;;;;;4910663;28;20531;-69
2023/04/20 12:37:18;;;;;;;9.15;3.50;;;;;;;;;;4911487;28;20070;-69
2023/04/20 12:40:57;;;;;;;7.75;2.22;;;;;;;;;;4911653;28;20043;-70
2023/04/20 12:44:38;;;;;;;5.22;2.28;;;;;;;;;;4912101;28;20498;-68
2023/04/20 12:48:18;;;;;;;7.65;2.10;;;;;;;;;;4911021;28;20050;-70
2023/04/20 12:51:58;;;;;;;7.90;1.73;;;;;;;;;;4913720;28;20488;-69
2023/04/20 12:55:39;;;;;;;3.00;1.52;;;;;;;;;;4910290;28;20051;-71
2023/04/20 12:59:19;;;;;;;4.50;1.70;;;;;;;;;;4909219;28;20126;-69
2023/04/20 13:02:59;;;;;;;9.35;1.67;;;;;;;;;;4910785;28;20110;-68
2023/04/20 13:06:39;;;;;;;4.97;1.80;;;;;;;;;;4911964;28;20566;-67
2023/04/20 13:10:20;;;;;;;8.95;1.40;;;;;;;;;;4914984;28;20052;-69
2023/04/20 13:14:00;;;;;;;4.68;1.95;;;;;;;;;;4910767;28;20075;-71
2023/04/20 13:17:41;;;;;;;4.43;1.80;;;;;;;;;;4912171;28;20067;-68
2023/04/20 13:21:21;;;;;;;6.22;1.80;;;;;;;;;;4912489;28;20145;-72
2023/04/20 13:25:02;;;;;;;3.92;1.42;;;;;;;;;;4913373;29;20063;-70
2023/04/20 13:28:42;;;;;;;7.05;2.28;;;;;;;;;;4909924;28;20052;-70
2023/04/20 13:32:22;;;;;;;9.50;1.55;;;;;;;;;;4912180;28;20394;-70
2023/04/20 13:36:02;;;;;;;8.95;1.75;;;;;;;;;;4910146;28;20107;-68
2023/04/20 13:39:43;;;;;;;5.32;1.60;;;;;;;;;;4909779;28;20073;-68
2023/04/20 13:43:23;;;;;;;9.05;1.73;;;;;;;;;;4910805;28;20039;-69
2023/04/20 13:47:03;;;;;;;5.53;1.70;;;;;;;;;;4909335;28;20134;-69
2023/04/20 13:50:44;;;;;;;11.80;1.92;;;;;;;;;;4907917;29;20530;-71
2023/04/20 13:54:24;;;;;;;12.60;1.85;;;;;;;;;;4908859;28;20058;-70
2023/04/20 13:58:04;;;;;;;10.98;1.70;;;;;;;;;;4908946;28;20585;-70
2023/04/20 14:01:46;;;;;;;15.15;2.13;;;;;;;;;;4910372;28;20170;-70
2023/04/20 14:05:26;;;;;;;13.07;2.08;;;;;;;;;;4908766;28;20894;-69
2023/04/20 14:09:06;;;;;;;11.77;2.33;;;;;;;;;;4912084;28;20066;-70
2023/04/20 14:12:47;;;;;;;11.30;2.10;;;;;;;;;;4914589;28;20090;-71
2023/04/20 14:16:27;;;;;;;7.97;1.95;;;;;;;;;;4910161;28;20075;-70
2023/04/20 14:20:08;;;;;;;14.32;2.20;;;;;;;;;;4905632;28;20471;-67
2023/04/20 14:23:52;;;;;;;20.83;2.22;;;;;;;;;;4907414;28;20060;-67
2023/04/20 14:27:32;;;;;;;10.10;2.63;;;;;;;;;;4909723;28;20937;-70
2023/04/20 14:31:12;;;;;;;17.88;2.95;;;;;;;;;;4909592;28;20697;-68
2023/04/20 14:34:52;;;;;;;21.23;3.97;;;;;;;;;;4908371;28;20076;-69
2023/04/20 14:38:33;;;;;;;14.02;2.63;;;;;;;;;;4908985;28;20509;-68
2023/04/20 14:42:13;;;;;;;14.95;3.10;;;;;;;;;;4906728;28;20052;-67
2023/04/20 14:45:54;;;;;;;17.55;2.83;;;;;;;;;;4905224;29;20089;-73
2023/04/20 14:49:34;;;;;;;12.43;2.40;;;;;;;;;;4907583;28;20419;-71
2023/04/20 14:53:15;;;;;;;49.17;7.28;;;;;;;;;;4908352;28;20159;-72
2023/04/20 14:56:55;;;;;;;28.77;4.82;;;;;;;;;;4907545;28;20135;-68
2023/04/20 15:00:37;;;;;;;37.33;4.97;;;;;;;;;;4906326;29;20047;-72
2023/04/20 15:04:17;;;;;;;27.30;4.25;;;;;;;;;;4904609;29;20058;-71
2023/04/20 15:07:58;;;;;;;27.88;3.80;;;;;;;;;;4909073;28;20056;-71
2023/04/20 15:11:38;;;;;;;60.80;6.70;;;;;;;;;;4909878;28;20141;-72
2023/04/20 15:15:20;;;;;;;35.13;6.88;;;;;;;;;;4911598;28;20044;-69
2023/04/20 15:19:00;;;;;;;23.98;4.13;;;;;;;;;;4907686;28;20055;-70
2023/04/20 15:22:40;;;;;;;21.10;4.28;;;;;;;;;;4909465;28;20130;-70
2023/04/20 15:26:21;;;;;;;20.50;3.50;;;;;;;;;;4911148;28;20075;-71
2023/04/20 15:30:01;;;;;;;22.38;3.13;;;;;;;;;;4909486;28;20131;-75
2023/04/20 15:33:46;;;;;;;27.67;3.83;;;;;;;;;;4909350;28;20512;-70
2023/04/20 15:37:25;;;;;;;17.38;2.75;;;;;;;;;;4905580;28;20047;-72
2023/04/20 15:41:06;;;;;;;22.25;3.22;;;;;;;;;;4912811;28;20059;-71
2023/04/20 15:44:46;;;;;;;12.07;2.35;;;;;;;;;;4910644;28;20047;-73
2023/04/20 15:48:28;;;;;;;13.80;2.60;;;;;;;;;;4909904;28;20530;-72
2023/04/20 15:52:08;;;;;;;16.98;2.83;;;;;;;;;;4912266;28;20114;-71
2023/04/20 15:55:51;;;;;;;12.88;2.92;;;;;;;;;;4912535;28;22110;-76
2023/04/20 15:59:32;;;;;;;13.00;2.55;;;;;;;;;;4911875;28;20062;-72
2023/04/20 16:03:13;;;;;;;10.23;2.65;;;;;;;;;;4911794;29;20067;-72
2023/04/20 16:06:54;;;;;;;14.98;2.40;;;;;;;;;;4912920;28;20134;-72
2023/04/20 16:10:35;;;;;;;12.13;2.50;;;;;;;;;;4914925;28;20254;-70
2023/04/20 16:14:15;;;;;;;9.18;2.15;;;;;;;;;;4913752;28;20051;-73
2023/04/20 16:17:58;;;;;;;11.90;3.88;;;;;;;;;;4924409;28;20052;-79
2023/04/20 16:21:38;;;;;;;13.07;2.67;;;;;;;;;;4919675;29;20051;-75
2023/04/20 16:25:21;;;;;;;9.25;2.35;;;;;;;;;;4928664;28;20395;-77
2023/04/20 16:28:19;;;;;;;12.85;2.40;;;;;;;;;;4924849;28;20056;-79
2023/04/20 16:30:45;;;;;;;11.70;2.60;;;;;;;;;;4922852;28;21040;-75
2023/04/20 16:33:12;;;;;;;14.93;3.03;;;;;;;;;;4914740;28;20449;-72
2023/04/20 16:35:39;;;;;;;9.90;2.35;;;;;;;;;;4919004;28;20149;-75
2023/04/20 16:38:05;;;;;;;10.55;2.20;;;;;;;;;;4910018;28;20044;-72
2023/04/20 16:40:32;;;;;;;9.98;2.55;;;;;;;;;;4914036;28;20040;-74
2023/04/20 16:42:59;;;;;;;8.75;2.38;;;;;;;;;;4914253;28;20063;-75
2023/04/20 16:45:25;;;;;;;10.52;2.38;;;;;;;;;;4914469;28;20055;-73
2023/04/20 16:47:52;;;;;;;14.90;2.65;;;;;;;;;;4915067;28;20066;-73
2023/04/20 16:50:19;;;;;;;13.65;2.65;;;;;;;;;;4929260;28;20047;-77
2023/04/20 16:52:45;;;;;;;9.82;2.70;;;;;;;;;;4916489;28;20843;-72
2023/04/20 16:55:13;;;;;;;19.55;3.13;;;;;;;;;;4910134;29;20059;-71
2023/04/20 16:57:41;;;;;;;9.35;2.53;;;;;;;;;;4913561;28;20047;-72
2023/04/20 17:00:09;;;;;;;15.90;2.75;;;;;;;;;;4915027;28;20063;-77
2023/04/20 17:02:36;;;;;;;11.65;2.65;;;;;;;;;;4917767;28;20115;-73
2023/04/20 17:05:03;;;;;;;11.70;2.70;;;;;;;;;;4917408;28;20170;-74
2023/04/20 17:07:30;;;;;;;13.35;2.60;;;;;;;;;;4914193;28;20052;-74
2023/04/20 17:09:56;;;;;;;9.70;2.47;;;;;;;;;;4919081;28;20064;-72
2023/04/20 17:12:24;;;;;;;18.85;3.08;;;;;;;;;;4922527;28;20079;-72
2023/04/20 17:14:50;;;;;;;13.43;2.83;;;;;;;;;;4916131;28;20146;-75
2023/04/20 17:17:16;;;;;;;15.07;2.92;;;;;;;;;;4917799;28;20059;-73
2023/04/20 17:19:43;;;;;;;14.07;2.80;;;;;;;;;;4919303;28;20076;-76
2023/04/20 17:22:10;;;;;;;15.63;2.90;;;;;;;;;;4915526;28;20893;-71
2023/04/20 17:24:37;;;;;;;14.18;2.72;;;;;;;;;;4928847;28;20072;-75
2023/04/20 17:27:04;;;;;;;7.53;2.58;;;;;;;;;;4920507;28;20230;-78
2023/04/20 17:29:34;;;;;;;14.30;2.55;;;;;;;;;;4927235;28;20733;-74
2023/04/20 17:32:02;;;;;;;10.55;2.90;;;;;;;;;;4917958;28;20046;-74
2023/04/20 17:34:28;;;;;;;14.15;3.10;;;;;;;;;;4915067;29;20056;-75
2023/04/20 17:36:53;;;;;;;28.17;3.85;;;;;;;;;;4903118;28;20098;-74
2023/04/20 17:39:20;;;;;;;13.73;3.05;;;;;;;;;;4916572;28;20058;-77
2023/04/20 17:41:46;;;;;;;15.25;3.10;;;;;;;;;;4914547;28;20105;-75
2023/04/20 17:44:13;;;;;;;16.70;3.85;;;;;;;;;;4911098;28;20056;-75
2023/04/20 17:46:39;;;;;;;14.45;3.33;;;;;;;;;;4917303;28;20052;-73
2023/04/20 17:49:08;;;;;;;19.70;4.18;;;;;;;;;;4913600;29;20047;-72
2023/04/20 17:51:33;;;;;;;20.20;3.60;;;;;;;;;;4912892;29;20055;-74
2023/04/20 17:54:00;;;;;;;25.80;4.90;;;;;;;;;;4913132;28;20106;-72
2023/04/20 17:56:26;;;;;;;13.75;3.20;;;;;;;;;;4929723;28;20471;-72
2023/04/20 17:58:52;;;;;;;18.27;3.50;;;;;;;;;;4913746;28;20099;-73
2023/04/20 18:01:19;;;;;;;12.88;3.08;;;;;;;;;;4911355;28;20043;-75
2023/04/20 18:03:47;;;;;;;13.93;3.22;;;;;;;;;;4912760;28;20464;-73
2023/04/20 18:06:12;;;;;;;12.10;3.10;;;;;;;;;;4914648;28;20063;-73
2023/04/20 18:08:38;;;;;;;16.88;3.28;;;;;;;;;;4915100;28;20107;-74
2023/04/20 18:11:06;;;;;;;14.15;3.05;;;;;;;;;;4925054;29;20514;-73
2023/04/20 18:13:32;;;;;;;20.88;3.13;;;;;;;;;;4915303;28;20046;-73